Terminal Aerodrome Forecast
Issued by NWS Lake Charles, LA

Home | Current Version | Previous Version | Text Only | Print | Product List | Glossary On
Versions: 1 2 3 4 5 6 7 8 9 10 11 12 13 14 15 16 17 18 19 20 21 22
000
FTUS44 KLCH 221738
TAFLCH
TAF
KLCH 221738Z 2218/2318 09010KT P6SM VCSH BKN006 OVC012
      TEMPO 2218/2220 5SM -SHRA
     FM222000 10011KT P6SM VCSH SCT008 OVC015
      TEMPO 2223/2302 2SM +TSRA OVC008CB
     FM230200 06009KT 5SM BR VCSH OVC004
     FM231000 34006KT 3SM BR VCSH OVC003
     FM231500 35008KT 6SM BR OVC015=

USA.gov is the U.S. government's official web portal to all federal, state and local government web resources and services.